createdAt,value
2023-05-02T00:05:15.936Z,25.6
2023-05-02T00:15:16.151Z,28.8
2023-05-02T00:25:16.826Z,25.8
2023-05-02T00:35:16.966Z,25.6
2023-05-02T00:45:16.489Z,26.1
2023-05-02T00:55:17.692Z,25.7
2023-05-02T01:05:17.308Z,28.6
2023-05-02T01:15:17.850Z,25.9
2023-05-02T01:25:18.493Z,27.9
2023-05-02T01:35:21.709Z,27.7
2023-05-02T01:45:25.126Z,27.7
2023-05-02T01:55:28.691Z,28.4
2023-05-02T02:05:32.007Z,27.9
2023-05-02T02:15:35.592Z,27.3
2023-05-02T02:25:38.826Z,27.4
2023-05-02T02:35:42.388Z,28.1
2023-05-02T02:45:45.678Z,28
2023-05-02T02:55:49.206Z,27.5
2023-05-02T03:05:07.018Z,27.4
2023-05-02T03:15:10.871Z,27.4
2023-05-02T03:25:14.035Z,27.8
2023-05-02T03:35:17.518Z,27.7
2023-05-02T03:45:24.597Z,34.6
2023-05-02T03:55:40.861Z,38.1
2023-05-02T04:06:00.474Z,38.7
2023-05-02T04:16:20.312Z,38.7
2023-05-02T04:26:39.767Z,38.5
2023-05-02T04:37:01.190Z,38.3
2023-05-02T04:47:21.495Z,38.3
2023-05-02T04:57:43.266Z,38.6
2023-05-02T05:08:03.680Z,38.5
2023-05-02T05:18:24.151Z,38.9
2023-05-02T05:28:44.726Z,38.2
2023-05-02T05:39:05.553Z,38.2
2023-05-02T05:49:27.835Z,38
2023-05-02T05:59:50.591Z,26.4
2023-05-02T06:10:07.684Z,38.3
2023-05-02T06:20:24.221Z,39
2023-05-02T06:30:40.947Z,38.8
2023-05-02T06:40:59.170Z,40.3
2023-05-02T06:51:16.327Z,40.1
2023-05-02T07:01:33.476Z,38.3
2023-05-02T07:11:49.940Z,40
2023-05-02T07:22:05.593Z,39.1
2023-05-02T07:32:21.340Z,39
2023-05-02T07:42:36.797Z,39.4
2023-05-02T07:52:52.327Z,39.4
2023-05-02T08:03:08.000Z,39.1
2023-05-02T08:13:25.036Z,41.2
2023-05-02T08:23:44.226Z,41.4
2023-05-02T08:34:00.986Z,40.9
2023-05-02T08:44:17.596Z,41.6
2023-05-02T08:54:32.482Z,38.4
2023-05-02T09:05:17.301Z,42.4
2023-05-02T09:15:37.580Z,40.1
2023-05-02T09:25:57.916Z,40.4
2023-05-02T09:36:14.838Z,38.2
2023-05-02T09:46:29.712Z,37.3
2023-05-02T09:56:49.176Z,41.1
2023-05-02T10:07:01.962Z,39
2023-05-02T10:17:06.749Z,33.6
2023-05-02T10:27:21.095Z,40.9
2023-05-02T10:37:36.736Z,35.4
2023-05-02T10:47:57.726Z,43.6
2023-05-02T10:58:18.843Z,40.6
2023-05-02T11:08:35.905Z,47
2023-05-02T11:18:44.300Z,37.9
2023-05-02T11:28:58.724Z,38.3
2023-05-02T11:39:16.756Z,43.4
2023-05-02T11:49:35.119Z,30.9
2023-05-02T11:59:56.009Z,40.5
2023-05-02T12:10:13.946Z,39.9
2023-05-02T12:20:31.133Z,37.6
2023-05-02T12:30:48.163Z,37.8
2023-05-02T12:41:05.095Z,38.2
2023-05-02T12:51:20.634Z,38.3
2023-05-02T13:01:35.086Z,37.9
2023-05-02T13:11:47.989Z,36.2
2023-05-02T13:22:01.103Z,37.8
2023-05-02T13:32:13.474Z,35.6
2023-05-02T13:42:23.530Z,32.9
2023-05-02T13:52:30.887Z,30.9
2023-05-02T14:02:35.255Z,29.8
2023-05-02T14:12:39.427Z,29.8
2023-05-02T14:22:43.410Z,29.4
2023-05-02T14:32:47.424Z,29.3
2023-05-02T14:42:51.459Z,29.3
2023-05-02T14:52:55.419Z,29.8
2023-05-02T15:05:10.559Z,29.6
2023-05-02T15:15:14.134Z,29.3
2023-05-02T15:25:17.749Z,29.1
2023-05-02T15:35:20.697Z,29.1
2023-05-02T15:45:23.498Z,25.5
2023-05-02T15:55:24.617Z,25.2
2023-05-02T16:05:24.490Z,24.8
2023-05-02T16:15:25.644Z,25.1
2023-05-02T16:25:25.688Z,24.9
2023-05-02T16:35:24.968Z,24.8
2023-05-02T16:45:26.347Z,25.9
2023-05-02T16:55:27.160Z,26.4
2023-05-02T17:05:27.107Z,29
2023-05-02T17:15:28.046Z,28.9
2023-05-02T17:25:28.638Z,25.6
2023-05-02T17:35:29.660Z,25.9
2023-05-02T17:45:28.906Z,25.7
2023-05-02T17:55:30.406Z,29.3
2023-05-02T18:05:29.951Z,26.1
2023-05-02T18:15:29.650Z,26.1
2023-05-02T18:25:30.465Z,26.3
2023-05-02T18:35:30.865Z,25.6
2023-05-02T18:45:31.487Z,28.9
2023-05-02T18:55:32.236Z,25.5
2023-05-02T19:05:32.116Z,28.9
2023-05-02T19:15:32.486Z,25.9
2023-05-02T19:25:31.863Z,25.7
2023-05-02T19:35:32.517Z,29.1
2023-05-02T19:45:32.442Z,25.8
2023-05-02T19:55:32.471Z,25.6
2023-05-02T20:05:32.214Z,25.6
2023-05-02T20:15:31.770Z,28.9
2023-05-02T20:25:32.483Z,25.6
2023-05-02T20:35:31.906Z,25.4
2023-05-02T20:45:31.332Z,25.8
2023-05-02T20:55:31.622Z,25.6
2023-05-02T21:05:07.407Z,26.1
2023-05-02T21:15:07.738Z,25.6
2023-05-02T21:25:08.452Z,25.9
2023-05-02T21:35:09.203Z,25.8
2023-05-02T21:45:10.019Z,25.1
2023-05-02T21:55:11.426Z,26.4
2023-05-02T22:05:11.481Z,25
2023-05-02T22:15:14.210Z,25.8
2023-05-02T22:25:15.202Z,28.7
2023-05-02T22:35:16.294Z,28.9
2023-05-02T22:45:18.402Z,28.6
2023-05-02T22:55:19.608Z,25.3
2023-05-02T23:05:21.057Z,25.4
2023-05-02T23:15:21.573Z,25.8
2023-05-02T23:25:21.091Z,25.1
2023-05-02T23:35:21.041Z,25.6
2023-05-02T23:45:20.538Z,25.4
2023-05-02T23:55:20.876Z,25.8
